sensor_id;sensor_type;location;lat;lon;timestamp;noise_LAeq;noise_LA_min;noise_LA_max;noise_LA01;noise_LA95
61095;Laerm;20450;49.074;9.158;2024-01-06T00:01:24;43.49;41.82;45.94;;
61095;Laerm;20450;49.074;9.158;2024-01-06T00:03:51;43.35;41.82;44.62;;
61095;Laerm;20450;49.074;9.158;2024-01-06T00:06:19;43.15;41.68;45.48;;
61095;Laerm;20450;49.074;9.158;2024-01-06T00:08:47;43.17;41.61;46.13;;
61095;Laerm;20450;49.074;9.158;2024-01-06T00:11:13;43.12;41.30;50.60;;
61095;Laerm;20450;49.074;9.158;2024-01-06T00:13:42;43.09;41.14;45.14;;
61095;Laerm;20450;49.074;9.158;2024-01-06T00:16:09;43.05;41.38;45.14;;
61095;Laerm;20450;49.074;9.158;2024-01-06T00:18:36;43.15;41.55;45.91;;
61095;Laerm;20450;49.074;9.158;2024-01-06T00:21:05;43.11;41.61;44.47;;
61095;Laerm;20450;49.074;9.158;2024-01-06T00:23:32;43.19;41.61;44.62;;
61095;Laerm;20450;49.074;9.158;2024-01-06T00:25:59;43.11;41.68;46.13;;
61095;Laerm;20450;49.074;9.158;2024-01-06T00:28:26;43.17;41.38;44.43;;
61095;Laerm;20450;49.074;9.158;2024-01-06T00:30:55;43.21;41.68;44.73;;
61095;Laerm;20450;49.074;9.158;2024-01-06T00:33:22;43.14;41.53;44.43;;
61095;Laerm;20450;49.074;9.158;2024-01-06T00:35:51;43.10;41.46;44.47;;
61095;Laerm;20450;49.074;9.158;2024-01-06T00:38:18;43.09;41.30;44.31;;
61095;Laerm;20450;49.074;9.158;2024-01-06T00:40:46;43.13;41.81;44.35;;
61095;Laerm;20450;49.074;9.158;2024-01-06T00:43:15;43.19;41.53;44.35;;
61095;Laerm;20450;49.074;9.158;2024-01-06T00:45:43;43.14;41.68;49.02;;
61095;Laerm;20450;49.074;9.158;2024-01-06T00:48:11;43.13;41.38;48.55;;
61095;Laerm;20450;49.074;9.158;2024-01-06T00:50:38;43.09;41.61;44.31;;
61095;Laerm;20450;49.074;9.158;2024-01-06T00:53:06;43.15;41.68;44.51;;
61095;Laerm;20450;49.074;9.158;2024-01-06T00:55:34;43.04;41.38;44.38;;
61095;Laerm;20450;49.074;9.158;2024-01-06T00:58:01;43.08;41.61;44.35;;
61095;Laerm;20450;49.074;9.158;2024-01-06T01:00:29;43.11;41.53;44.76;;
61095;Laerm;20450;49.074;9.158;2024-01-06T01:02:56;43.09;41.22;44.35;;
61095;Laerm;20450;49.074;9.158;2024-01-06T01:05:26;43.06;41.06;44.34;;
61095;Laerm;20450;49.074;9.158;2024-01-06T01:07:55;42.93;41.14;44.62;;
61095;Laerm;20450;49.074;9.158;2024-01-06T01:10:22;43.00;41.38;44.34;;
61095;Laerm;20450;49.074;9.158;2024-01-06T01:12:50;42.93;41.06;44.23;;
61095;Laerm;20450;49.074;9.158;2024-01-06T01:15:19;42.94;40.89;44.23;;
61095;Laerm;20450;49.074;9.158;2024-01-06T01:17:46;43.03;41.38;45.11;;
61095;Laerm;20450;49.074;9.158;2024-01-06T01:20:15;43.19;41.61;44.87;;
61095;Laerm;20450;49.074;9.158;2024-01-06T01:22:43;43.15;41.46;44.83;;
61095;Laerm;20450;49.074;9.158;2024-01-06T01:25:10;43.40;41.75;50.95;;
61095;Laerm;20450;49.074;9.158;2024-01-06T01:27:37;43.53;42.03;45.33;;
61095;Laerm;20450;49.074;9.158;2024-01-06T01:30:06;43.80;41.89;55.25;;
61095;Laerm;20450;49.074;9.158;2024-01-06T01:32:33;43.71;42.03;44.97;;
61095;Laerm;20450;49.074;9.158;2024-01-06T01:35:01;43.57;42.16;44.90;;
61095;Laerm;20450;49.074;9.158;2024-01-06T01:37:28;43.52;41.61;44.76;;
61095;Laerm;20450;49.074;9.158;2024-01-06T01:39:57;43.68;41.68;44.87;;
61095;Laerm;20450;49.074;9.158;2024-01-06T01:42:24;43.72;42.41;45.30;;
61095;Laerm;20450;49.074;9.158;2024-01-06T01:44:51;43.82;42.47;45.30;;
61095;Laerm;20450;49.074;9.158;2024-01-06T01:47:18;43.77;42.35;45.11;;
61095;Laerm;20450;49.074;9.158;2024-01-06T01:49:46;43.82;42.41;45.07;;
61095;Laerm;20450;49.074;9.158;2024-01-06T01:52:15;43.85;42.22;45.17;;
61095;Laerm;20450;49.074;9.158;2024-01-06T01:54:45;43.79;42.35;45.23;;
61095;Laerm;20450;49.074;9.158;2024-01-06T01:57:15;43.62;41.96;44.83;;
61095;Laerm;20450;49.074;9.158;2024-01-06T01:59:43;43.42;41.89;44.47;;
61095;Laerm;20450;49.074;9.158;2024-01-06T02:02:12;43.45;42.09;44.80;;
61095;Laerm;20450;49.074;9.158;2024-01-06T02:04:39;43.47;41.96;44.83;;
61095;Laerm;20450;49.074;9.158;2024-01-06T02:07:07;43.50;41.89;44.94;;
61095;Laerm;20450;49.074;9.158;2024-01-06T02:09:34;43.45;41.89;44.83;;
61095;Laerm;20450;49.074;9.158;2024-01-06T02:12:04;43.28;41.82;44.39;;
61095;Laerm;20450;49.074;9.158;2024-01-06T02:14:33;43.30;41.82;44.58;;
61095;Laerm;20450;49.074;9.158;2024-01-06T02:17:00;43.39;42.09;44.69;;
61095;Laerm;20450;49.074;9.158;2024-01-06T02:19:26;43.31;41.30;44.51;;
61095;Laerm;20450;49.074;9.158;2024-01-06T02:21:55;43.27;41.75;44.58;;
61095;Laerm;20450;49.074;9.158;2024-01-06T02:24:22;43.45;41.89;44.62;;
61095;Laerm;20450;49.074;9.158;2024-01-06T02:26:49;43.39;41.82;44.54;;
61095;Laerm;20450;49.074;9.158;2024-01-06T02:29:16;43.49;41.89;45.01;;
61095;Laerm;20450;49.074;9.158;2024-01-06T02:31:43;43.41;41.94;44.76;;
61095;Laerm;20450;49.074;9.158;2024-01-06T02:34:10;43.52;41.46;45.07;;
61095;Laerm;20450;49.074;9.158;2024-01-06T02:36:38;43.38;41.75;44.54;;
61095;Laerm;20450;49.074;9.158;2024-01-06T02:39:08;43.26;41.68;44.69;;
61095;Laerm;20450;49.074;9.158;2024-01-06T02:41:35;43.27;41.68;44.65;;
61095;Laerm;20450;49.074;9.158;2024-01-06T02:44:03;43.41;41.82;45.23;;
61095;Laerm;20450;49.074;9.158;2024-01-06T02:46:30;43.43;41.82;44.62;;
61095;Laerm;20450;49.074;9.158;2024-01-06T02:48:57;43.36;42.09;44.54;;
61095;Laerm;20450;49.074;9.158;2024-01-06T02:51:24;43.38;41.89;44.58;;
61095;Laerm;20450;49.074;9.158;2024-01-06T02:53:51;43.23;41.75;44.43;;
61095;Laerm;20450;49.074;9.158;2024-01-06T02:56:20;43.17;41.61;44.51;;
61095;Laerm;20450;49.074;9.158;2024-01-06T02:58:47;43.13;41.61;44.27;;
61095;Laerm;20450;49.074;9.158;2024-01-06T03:01:15;43.14;41.06;44.54;;
61095;Laerm;20450;49.074;9.158;2024-01-06T03:03:43;43.15;41.68;44.35;;
61095;Laerm;20450;49.074;9.158;2024-01-06T03:06:11;43.27;41.89;44.54;;
61095;Laerm;20450;49.074;9.158;2024-01-06T03:08:38;43.17;41.68;44.51;;
61095;Laerm;20450;49.074;9.158;2024-01-06T03:11:05;43.25;41.46;44.97;;
61095;Laerm;20450;49.074;9.158;2024-01-06T03:13:33;43.30;41.82;45.91;;
61095;Laerm;20450;49.074;9.158;2024-01-06T03:16:04;43.21;41.22;44.69;;
61095;Laerm;20450;49.074;9.158;2024-01-06T03:18:31;43.28;41.68;46.45;;
61095;Laerm;20450;49.074;9.158;2024-01-06T03:20:58;43.24;41.82;44.39;;
61095;Laerm;20450;49.074;9.158;2024-01-06T03:23:25;43.33;41.61;44.73;;
61095;Laerm;20450;49.074;9.158;2024-01-06T03:25:52;43.31;41.89;44.47;;
61095;Laerm;20450;49.074;9.158;2024-01-06T03:28:21;43.33;41.96;44.97;;
61095;Laerm;20450;49.074;9.158;2024-01-06T03:30:49;43.47;41.96;44.80;;
61095;Laerm;20450;49.074;9.158;2024-01-06T03:33:16;43.55;41.61;44.83;;
61095;Laerm;20450;49.074;9.158;2024-01-06T03:35:48;43.41;41.82;44.94;;
61095;Laerm;20450;49.074;9.158;2024-01-06T03:38:16;43.52;42.03;53.24;;
61095;Laerm;20450;49.074;9.158;2024-01-06T03:40:44;43.36;41.96;45.66;;
61095;Laerm;20450;49.074;9.158;2024-01-06T03:43:11;43.31;41.61;46.54;;
61095;Laerm;20450;49.074;9.158;2024-01-06T03:45:38;43.41;41.89;44.76;;
61095;Laerm;20450;49.074;9.158;2024-01-06T03:48:07;43.54;42.16;44.69;;
61095;Laerm;20450;49.074;9.158;2024-01-06T03:50:34;43.43;41.89;44.80;;
61095;Laerm;20450;49.074;9.158;2024-01-06T03:53:05;43.39;41.75;44.62;;
61095;Laerm;20450;49.074;9.158;2024-01-06T03:55:33;43.38;41.75;44.62;;
61095;Laerm;20450;49.074;9.158;2024-01-06T03:58:04;43.35;41.82;45.66;;
61095;Laerm;20450;49.074;9.158;2024-01-06T04:00:33;43.33;41.82;44.69;;
61095;Laerm;20450;49.074;9.158;2024-01-06T04:03:00;43.40;41.68;44.73;;
61095;Laerm;20450;49.074;9.158;2024-01-06T04:05:29;43.48;41.89;45.51;;
61095;Laerm;20450;49.074;9.158;2024-01-06T04:07:57;43.41;41.96;44.62;;
61095;Laerm;20450;49.074;9.158;2024-01-06T04:10:27;43.31;41.53;44.90;;
61095;Laerm;20450;49.074;9.158;2024-01-06T04:12:54;43.25;41.75;44.54;;
61095;Laerm;20450;49.074;9.158;2024-01-06T04:15:22;43.34;41.75;44.52;;
61095;Laerm;20450;49.074;9.158;2024-01-06T04:17:49;43.20;41.75;44.31;;
61095;Laerm;20450;49.074;9.158;2024-01-06T04:20:17;43.24;41.82;44.35;;
61095;Laerm;20450;49.074;9.158;2024-01-06T04:22:46;43.33;41.61;44.35;;
61095;Laerm;20450;49.074;9.158;2024-01-06T04:25:17;43.23;41.68;44.65;;
61095;Laerm;20450;49.074;9.158;2024-01-06T04:27:45;43.36;42.00;44.58;;
61095;Laerm;20450;49.074;9.158;2024-01-06T04:30:13;43.43;41.53;44.69;;
61095;Laerm;20450;49.074;9.158;2024-01-06T04:32:43;43.36;41.82;44.90;;
61095;Laerm;20450;49.074;9.158;2024-01-06T04:35:12;43.27;41.75;44.51;;
61095;Laerm;20450;49.074;9.158;2024-01-06T04:37:40;43.20;41.68;44.76;;
61095;Laerm;20450;49.074;9.158;2024-01-06T04:40:11;43.18;41.68;44.90;;
61095;Laerm;20450;49.074;9.158;2024-01-06T04:42:38;43.17;41.46;44.39;;
61095;Laerm;20450;49.074;9.158;2024-01-06T04:45:06;43.13;41.30;44.39;;
61095;Laerm;20450;49.074;9.158;2024-01-06T04:47:33;43.14;41.38;44.43;;
61095;Laerm;20450;49.074;9.158;2024-01-06T04:50:01;43.15;41.61;51.21;;
61095;Laerm;20450;49.074;9.158;2024-01-06T04:52:28;43.13;41.30;44.39;;
61095;Laerm;20450;49.074;9.158;2024-01-06T04:54:55;43.26;41.61;44.94;;
61095;Laerm;20450;49.074;9.158;2024-01-06T04:57:24;43.17;41.46;44.27;;
61095;Laerm;20450;49.074;9.158;2024-01-06T04:59:51;43.11;41.46;44.43;;
61095;Laerm;20450;49.074;9.158;2024-01-06T05:02:18;43.19;41.46;44.35;;
61095;Laerm;20450;49.074;9.158;2024-01-06T05:04:46;43.18;41.61;44.51;;
61095;Laerm;20450;49.074;9.158;2024-01-06T05:07:13;43.38;41.89;49.83;;
61095;Laerm;20450;49.074;9.158;2024-01-06T05:09:41;43.38;41.89;44.62;;
61095;Laerm;20450;49.074;9.158;2024-01-06T05:12:08;43.54;42.16;46.13;;
61095;Laerm;20450;49.074;9.158;2024-01-06T05:14:36;43.53;42.06;44.72;;
61095;Laerm;20450;49.074;9.158;2024-01-06T05:17:04;43.42;41.82;44.58;;
61095;Laerm;20450;49.074;9.158;2024-01-06T05:19:31;43.54;41.68;44.87;;
61095;Laerm;20450;49.074;9.158;2024-01-06T05:21:59;43.43;42.09;44.69;;
61095;Laerm;20450;49.074;9.158;2024-01-06T05:24:26;43.45;41.82;45.04;;
61095;Laerm;20450;49.074;9.158;2024-01-06T05:26:54;43.56;42.03;44.94;;
61095;Laerm;20450;49.074;9.158;2024-01-06T05:29:22;43.76;42.29;49.40;;
61095;Laerm;20450;49.074;9.158;2024-01-06T05:31:50;43.68;41.82;44.94;;
61095;Laerm;20450;49.074;9.158;2024-01-06T05:34:18;43.64;42.03;45.30;;
61095;Laerm;20450;49.074;9.158;2024-01-06T05:36:45;43.52;41.89;44.83;;
61095;Laerm;20450;49.074;9.158;2024-01-06T05:39:12;43.40;41.53;44.65;;
61095;Laerm;20450;49.074;9.158;2024-01-06T05:41:39;43.34;41.82;44.58;;
61095;Laerm;20450;49.074;9.158;2024-01-06T05:44:06;43.43;42.03;44.58;;
61095;Laerm;20450;49.074;9.158;2024-01-06T05:46:34;43.35;41.82;44.83;;
61095;Laerm;20450;49.074;9.158;2024-01-06T05:49:02;43.47;41.61;45.01;;
61095;Laerm;20450;49.074;9.158;2024-01-06T05:51:29;43.42;41.96;44.80;;
61095;Laerm;20450;49.074;9.158;2024-01-06T05:53:57;43.42;42.03;44.73;;
61095;Laerm;20450;49.074;9.158;2024-01-06T05:56:24;43.68;42.35;44.97;;
61095;Laerm;20450;49.074;9.158;2024-01-06T05:58:52;43.69;42.16;44.87;;
61095;Laerm;20450;49.074;9.158;2024-01-06T06:01:20;43.78;42.36;46.35;;
61095;Laerm;20450;49.074;9.158;2024-01-06T06:03:50;43.93;42.29;45.59;;
61095;Laerm;20450;49.074;9.158;2024-01-06T06:06:19;43.79;42.16;45.66;;
61095;Laerm;20450;49.074;9.158;2024-01-06T06:08:48;43.69;42.09;45.83;;
61095;Laerm;20450;49.074;9.158;2024-01-06T06:11:15;43.67;42.35;44.94;;
61095;Laerm;20450;49.074;9.158;2024-01-06T06:13:42;43.70;41.96;45.86;;
61095;Laerm;20450;49.074;9.158;2024-01-06T06:16:10;43.73;42.29;45.51;;
61095;Laerm;20450;49.074;9.158;2024-01-06T06:18:37;43.54;42.16;45.04;;
61095;Laerm;20450;49.074;9.158;2024-01-06T06:21:05;43.53;41.96;44.73;;
61095;Laerm;20450;49.074;9.158;2024-01-06T06:23:34;43.53;41.96;45.33;;
61095;Laerm;20450;49.074;9.158;2024-01-06T06:26:05;43.55;42.22;45.51;;
61095;Laerm;20450;49.074;9.158;2024-01-06T06:28:32;43.42;42.03;44.76;;
61095;Laerm;20450;49.074;9.158;2024-01-06T06:31:02;43.59;41.75;50.74;;
61095;Laerm;20450;49.074;9.158;2024-01-06T06:33:30;43.57;41.75;49.12;;
61095;Laerm;20450;49.074;9.158;2024-01-06T06:35:57;43.57;41.96;45.01;;
61095;Laerm;20450;49.074;9.158;2024-01-06T06:38:25;43.47;42.03;44.65;;
61095;Laerm;20450;49.074;9.158;2024-01-06T06:40:55;43.45;42.00;45.11;;
61095;Laerm;20450;49.074;9.158;2024-01-06T06:43:22;43.53;41.96;44.69;;
61095;Laerm;20450;49.074;9.158;2024-01-06T06:45:49;43.53;42.09;45.17;;
61095;Laerm;20450;49.074;9.158;2024-01-06T06:48:16;43.37;41.46;45.11;;
61095;Laerm;20450;49.074;9.158;2024-01-06T06:50:43;43.49;42.09;46.10;;
61095;Laerm;20450;49.074;9.158;2024-01-06T06:53:10;43.50;41.96;45.17;;
61095;Laerm;20450;49.074;9.158;2024-01-06T06:55:37;43.50;41.89;47.77;;
61095;Laerm;20450;49.074;9.158;2024-01-06T06:58:05;43.49;42.22;44.65;;
61095;Laerm;20450;49.074;9.158;2024-01-06T07:00:32;43.68;42.09;50.54;;
61095;Laerm;20450;49.074;9.158;2024-01-06T07:02:59;43.55;41.82;45.17;;
61095;Laerm;20450;49.074;9.158;2024-01-06T07:05:27;43.65;41.89;45.77;;
61095;Laerm;20450;49.074;9.158;2024-01-06T07:07:54;43.56;42.09;44.73;;
61095;Laerm;20450;49.074;9.158;2024-01-06T07:10:22;43.58;41.89;56.01;;
61095;Laerm;20450;49.074;9.158;2024-01-06T07:12:49;43.46;41.96;46.35;;
61095;Laerm;20450;49.074;9.158;2024-01-06T07:15:20;43.68;41.89;52.85;;
61095;Laerm;20450;49.074;9.158;2024-01-06T07:17:54;43.62;41.82;49.08;;
61095;Laerm;20450;49.074;9.158;2024-01-06T07:20:21;43.61;42.16;45.11;;
61095;Laerm;20450;49.074;9.158;2024-01-06T07:22:48;43.63;41.53;44.90;;
61095;Laerm;20450;49.074;9.158;2024-01-06T07:25:15;43.62;42.16;49.36;;
61095;Laerm;20450;49.074;9.158;2024-01-06T07:27:42;43.72;42.09;46.89;;
61095;Laerm;20450;49.074;9.158;2024-01-06T07:30:10;43.65;42.29;47.86;;
61095;Laerm;20450;49.074;9.158;2024-01-06T07:32:39;43.60;42.03;46.95;;
61095;Laerm;20450;49.074;9.158;2024-01-06T07:35:07;43.96;41.96;68.01;;
61095;Laerm;20450;49.074;9.158;2024-01-06T07:37:34;43.48;42.09;46.82;;
61095;Laerm;20450;49.074;9.158;2024-01-06T07:40:01;43.49;42.09;45.57;;
61095;Laerm;20450;49.074;9.158;2024-01-06T07:42:28;43.52;41.88;46.73;;
61095;Laerm;20450;49.074;9.158;2024-01-06T07:44:55;43.50;42.16;50.51;;
61095;Laerm;20450;49.074;9.158;2024-01-06T07:47:22;43.58;41.75;55.27;;
61095;Laerm;20450;49.074;9.158;2024-01-06T07:49:51;43.54;41.96;45.36;;
61095;Laerm;20450;49.074;9.158;2024-01-06T07:52:18;43.49;42.16;49.83;;
61095;Laerm;20450;49.074;9.158;2024-01-06T07:54:45;43.38;41.68;46.07;;
61095;Laerm;20450;49.074;9.158;2024-01-06T07:57:12;43.55;42.16;50.13;;
61095;Laerm;20450;49.074;9.158;2024-01-06T07:59:39;43.36;41.82;44.69;;
61095;Laerm;20450;49.074;9.158;2024-01-06T08:02:07;43.55;42.29;45.75;;
61095;Laerm;20450;49.074;9.158;2024-01-06T08:04:34;43.63;42.03;49.50;;
61095;Laerm;20450;49.074;9.158;2024-01-06T08:07:05;43.52;42.16;47.91;;
61095;Laerm;20450;49.074;9.158;2024-01-06T08:09:32;43.41;41.75;46.45;;
61095;Laerm;20450;49.074;9.158;2024-01-06T08:11:59;43.44;42.03;46.57;;
61095;Laerm;20450;49.074;9.158;2024-01-06T08:14:28;43.38;41.89;45.86;;
61095;Laerm;20450;49.074;9.158;2024-01-06T08:16:55;43.41;42.09;44.65;;
61095;Laerm;20450;49.074;9.158;2024-01-06T08:19:22;43.40;41.89;44.94;;
61095;Laerm;20450;49.074;9.158;2024-01-06T08:21:49;43.47;42.09;45.07;;
61095;Laerm;20450;49.074;9.158;2024-01-06T08:24:17;43.51;41.89;51.96;;
61095;Laerm;20450;49.074;9.158;2024-01-06T08:26:45;43.44;41.89;49.67;;
61095;Laerm;20450;49.074;9.158;2024-01-06T08:29:14;43.35;41.96;46.07;;
61095;Laerm;20450;49.074;9.158;2024-01-06T08:31:41;43.43;41.75;48.02;;
61095;Laerm;20450;49.074;9.158;2024-01-06T08:34:08;43.56;42.03;51.26;;
61095;Laerm;20450;49.074;9.158;2024-01-06T08:36:35;43.61;42.22;44.83;;
61095;Laerm;20450;49.074;9.158;2024-01-06T08:39:03;43.73;42.16;46.15;;
61095;Laerm;20450;49.074;9.158;2024-01-06T08:41:31;43.72;42.09;53.57;;
61095;Laerm;20450;49.074;9.158;2024-01-06T08:43:58;43.49;42.03;45.20;;
61095;Laerm;20450;49.074;9.158;2024-01-06T08:46:26;43.63;41.96;47.81;;
61095;Laerm;20450;49.074;9.158;2024-01-06T08:48:53;43.51;41.61;46.50;;
61095;Laerm;20450;49.074;9.158;2024-01-06T08:51:20;43.57;42.22;46.48;;
61095;Laerm;20450;49.074;9.158;2024-01-06T08:53:47;43.49;41.89;48.70;;
61095;Laerm;20450;49.074;9.158;2024-01-06T08:56:14;43.41;41.75;49.57;;
61095;Laerm;20450;49.074;9.158;2024-01-06T08:58:42;43.41;41.82;46.20;;
61095;Laerm;20450;49.074;9.158;2024-01-06T09:01:10;43.37;42.03;46.84;;
61095;Laerm;20450;49.074;9.158;2024-01-06T09:03:37;43.45;41.61;48.13;;
61095;Laerm;20450;49.074;9.158;2024-01-06T09:06:04;43.44;41.82;45.33;;
61095;Laerm;20450;49.074;9.158;2024-01-06T09:08:31;43.53;42.03;47.72;;
61095;Laerm;20450;49.074;9.158;2024-01-06T09:10:58;43.58;41.94;48.10;;
61095;Laerm;20450;49.074;9.158;2024-01-06T09:13:25;43.48;41.89;44.90;;
61095;Laerm;20450;49.074;9.158;2024-01-06T09:15:54;43.47;41.89;45.69;;
61095;Laerm;20450;49.074;9.158;2024-01-06T09:18:21;43.34;41.82;45.48;;
61095;Laerm;20450;49.074;9.158;2024-01-06T09:20:48;43.31;41.68;44.80;;
61095;Laerm;20450;49.074;9.158;2024-01-06T09:23:16;43.30;41.82;46.95;;
61095;Laerm;20450;49.074;9.158;2024-01-06T09:25:43;43.13;41.06;44.94;;
61095;Laerm;20450;49.074;9.158;2024-01-06T09:28:10;43.39;41.53;45.42;;
61095;Laerm;20450;49.074;9.158;2024-01-06T09:30:38;43.55;41.53;52.45;;
61095;Laerm;20450;49.074;9.158;2024-01-06T09:33:06;43.20;41.55;44.94;;
61095;Laerm;20450;49.074;9.158;2024-01-06T09:35:33;43.13;41.68;44.35;;
61095;Laerm;20450;49.074;9.158;2024-01-06T09:38:00;43.42;41.75;47.02;;
61095;Laerm;20450;49.074;9.158;2024-01-06T09:40:31;43.23;41.30;45.11;;
61095;Laerm;20450;49.074;9.158;2024-01-06T09:42:58;43.28;41.75;46.69;;
61095;Laerm;20450;49.074;9.158;2024-01-06T09:45:26;43.32;41.89;45.23;;
61095;Laerm;20450;49.074;9.158;2024-01-06T09:47:54;43.33;41.46;45.51;;
61095;Laerm;20450;49.074;9.158;2024-01-06T09:50:24;43.21;41.61;46.33;;
61095;Laerm;20450;49.074;9.158;2024-01-06T09:52:52;43.16;41.38;47.30;;
61095;Laerm;20450;49.074;9.158;2024-01-06T09:55:24;43.28;41.61;44.87;;
61095;Laerm;20450;49.074;9.158;2024-01-06T09:57:53;43.19;41.30;45.11;;
61095;Laerm;20450;49.074;9.158;2024-01-06T10:00:21;43.08;40.89;45.01;;
61095;Laerm;20450;49.074;9.158;2024-01-06T10:02:49;43.54;41.75;49.06;;
61095;Laerm;20450;49.074;9.158;2024-01-06T10:05:17;43.26;41.46;45.17;;
61095;Laerm;20450;49.074;9.158;2024-01-06T10:07:46;42.99;41.22;44.27;;
61095;Laerm;20450;49.074;9.158;2024-01-06T10:10:14;43.28;41.68;44.51;;
61095;Laerm;20450;49.074;9.158;2024-01-06T10:12:42;43.07;41.53;45.39;;
61095;Laerm;20450;49.074;9.158;2024-01-06T10:15:11;43.25;41.53;46.10;;
61095;Laerm;20450;49.074;9.158;2024-01-06T10:17:40;42.99;41.14;44.97;;
61095;Laerm;20450;49.074;9.158;2024-01-06T10:20:09;43.28;41.61;45.77;;
61095;Laerm;20450;49.074;9.158;2024-01-06T10:22:38;43.26;41.22;45.80;;
61095;Laerm;20450;49.074;9.158;2024-01-06T10:25:07;43.10;41.06;48.13;;
61095;Laerm;20450;49.074;9.158;2024-01-06T10:27:35;43.39;41.53;49.30;;
61095;Laerm;20450;49.074;9.158;2024-01-06T10:30:02;42.99;40.89;45.63;;
61095;Laerm;20450;49.074;9.158;2024-01-06T10:32:32;43.22;41.46;46.33;;
61095;Laerm;20450;49.074;9.158;2024-01-06T10:35:00;43.03;41.30;46.25;;
61095;Laerm;20450;49.074;9.158;2024-01-06T10:37:29;42.94;40.89;44.73;;
61095;Laerm;20450;49.074;9.158;2024-01-06T10:40:14;43.08;41.14;45.01;;
61095;Laerm;20450;49.074;9.158;2024-01-06T10:42:42;43.12;40.79;51.12;;
61095;Laerm;20450;49.074;9.158;2024-01-06T10:45:11;43.04;41.14;46.30;;
61095;Laerm;20450;49.074;9.158;2024-01-06T10:47:40;43.04;41.38;46.08;;
61095;Laerm;20450;49.074;9.158;2024-01-06T10:50:09;43.23;41.75;45.20;;
61095;Laerm;20450;49.074;9.158;2024-01-06T10:52:38;43.25;41.61;46.40;;
61095;Laerm;20450;49.074;9.158;2024-01-06T10:55:06;43.08;41.46;45.42;;
61095;Laerm;20450;49.074;9.158;2024-01-06T10:57:38;43.12;41.38;45.07;;
61095;Laerm;20450;49.074;9.158;2024-01-06T11:00:07;42.96;40.62;44.94;;
61095;Laerm;20450;49.074;9.158;2024-01-06T11:02:35;43.12;41.22;45.60;;
61095;Laerm;20450;49.074;9.158;2024-01-06T11:05:03;43.30;41.68;47.12;;
61095;Laerm;20450;49.074;9.158;2024-01-06T11:07:31;43.27;41.53;45.83;;
61095;Laerm;20450;49.074;9.158;2024-01-06T11:10:05;43.27;41.53;47.14;;
61095;Laerm;20450;49.074;9.158;2024-01-06T11:12:34;43.40;41.53;47.90;;
61095;Laerm;20450;49.074;9.158;2024-01-06T11:15:02;43.07;41.22;46.66;;
61095;Laerm;20450;49.074;9.158;2024-01-06T11:17:51;43.23;41.38;50.72;;
61095;Laerm;20450;49.074;9.158;2024-01-06T11:20:19;43.13;41.53;51.90;;
61095;Laerm;20450;49.074;9.158;2024-01-06T11:22:46;43.32;41.61;51.52;;
61095;Laerm;20450;49.074;9.158;2024-01-06T11:25:16;43.25;41.30;51.35;;
61095;Laerm;20450;49.074;9.158;2024-01-06T11:27:46;43.28;41.89;46.33;;
61095;Laerm;20450;49.074;9.158;2024-01-06T11:30:22;43.55;41.68;62.01;;
61095;Laerm;20450;49.074;9.158;2024-01-06T11:32:55;43.16;41.53;47.34;;
61095;Laerm;20450;49.074;9.158;2024-01-06T11:35:29;43.21;41.61;45.69;;
61095;Laerm;20450;49.074;9.158;2024-01-06T11:38:00;43.85;41.82;52.32;;
61095;Laerm;20450;49.074;9.158;2024-01-06T11:40:33;43.55;42.00;44.69;;
61095;Laerm;20450;49.074;9.158;2024-01-06T11:43:04;43.49;41.61;48.02;;
61095;Laerm;20450;49.074;9.158;2024-01-06T11:45:32;43.47;41.68;53.73;;
61095;Laerm;20450;49.074;9.158;2024-01-06T11:48:01;42.99;41.22;52.28;;
61095;Laerm;20450;49.074;9.158;2024-01-06T11:50:30;43.41;41.68;52.57;;
61095;Laerm;20450;49.074;9.158;2024-01-06T11:52:58;43.14;41.53;44.35;;
61095;Laerm;20450;49.074;9.158;2024-01-06T11:55:26;43.07;40.98;44.97;;
61095;Laerm;20450;49.074;9.158;2024-01-06T11:57:54;43.12;41.53;45.91;;
61095;Laerm;20450;49.074;9.158;2024-01-06T12:00:24;43.37;41.46;50.51;;
61095;Laerm;20450;49.074;9.158;2024-01-06T12:02:56;43.46;41.68;46.20;;
61095;Laerm;20450;49.074;9.158;2024-01-06T12:05:23;43.44;41.82;46.18;;
61095;Laerm;20450;49.074;9.158;2024-01-06T12:07:54;43.41;41.53;45.07;;
61095;Laerm;20450;49.074;9.158;2024-01-06T12:10:23;43.54;41.68;50.66;;
61095;Laerm;20450;49.074;9.158;2024-01-06T12:12:58;43.15;41.68;44.76;;
61095;Laerm;20450;49.074;9.158;2024-01-06T12:15:29;43.14;41.38;44.51;;
61095;Laerm;20450;49.074;9.158;2024-01-06T12:17:57;43.59;41.68;50.32;;
61095;Laerm;20450;49.074;9.158;2024-01-06T12:20:26;43.48;41.82;44.83;;
61095;Laerm;20450;49.074;9.158;2024-01-06T12:22:55;43.27;41.38;45.77;;
61095;Laerm;20450;49.074;9.158;2024-01-06T12:25:25;43.45;41.82;47.60;;
61095;Laerm;20450;49.074;9.158;2024-01-06T12:27:53;43.38;41.53;47.57;;
61095;Laerm;20450;49.074;9.158;2024-01-06T12:30:22;43.29;41.61;44.90;;
61095;Laerm;20450;49.074;9.158;2024-01-06T12:32:51;43.38;41.61;45.42;;
61095;Laerm;20450;49.074;9.158;2024-01-06T12:35:20;43.68;41.75;46.18;;
61095;Laerm;20450;49.074;9.158;2024-01-06T12:37:49;43.76;42.03;48.49;;
61095;Laerm;20450;49.074;9.158;2024-01-06T12:40:17;43.49;41.75;45.30;;
61095;Laerm;20450;49.074;9.158;2024-01-06T12:42:45;43.21;41.61;44.47;;
61095;Laerm;20450;49.074;9.158;2024-01-06T12:45:13;43.47;41.68;45.89;;
61095;Laerm;20450;49.074;9.158;2024-01-06T12:47:40;43.31;41.68;46.97;;
61095;Laerm;20450;49.074;9.158;2024-01-06T12:50:10;43.44;41.82;46.33;;
61095;Laerm;20450;49.074;9.158;2024-01-06T12:52:37;43.34;41.82;45.14;;
61095;Laerm;20450;49.074;9.158;2024-01-06T12:55:05;43.11;41.38;48.45;;
61095;Laerm;20450;49.074;9.158;2024-01-06T12:57:33;43.28;41.75;46.45;;
61095;Laerm;20450;49.074;9.158;2024-01-06T13:00:01;43.43;41.46;47.40;;
61095;Laerm;20450;49.074;9.158;2024-01-06T13:02:29;43.48;41.89;46.43;;
61095;Laerm;20450;49.074;9.158;2024-01-06T13:04:56;43.29;41.61;45.94;;
61095;Laerm;20450;49.074;9.158;2024-01-06T13:07:25;43.46;41.68;45.57;;
61095;Laerm;20450;49.074;9.158;2024-01-06T13:09:53;43.42;41.89;45.75;;
61095;Laerm;20450;49.074;9.158;2024-01-06T13:12:20;43.36;41.61;44.54;;
61095;Laerm;20450;49.074;9.158;2024-01-06T13:14:47;43.34;41.75;45.04;;
61095;Laerm;20450;49.074;9.158;2024-01-06T13:17:15;43.52;41.68;45.57;;
61095;Laerm;20450;49.074;9.158;2024-01-06T13:19:42;43.41;41.53;50.40;;
61095;Laerm;20450;49.074;9.158;2024-01-06T13:22:09;43.51;41.75;45.54;;
61095;Laerm;20450;49.074;9.158;2024-01-06T13:24:37;43.39;41.94;44.76;;
61095;Laerm;20450;49.074;9.158;2024-01-06T13:27:04;43.56;42.09;48.03;;
61095;Laerm;20450;49.074;9.158;2024-01-06T13:29:31;43.43;41.68;44.76;;
61095;Laerm;20450;49.074;9.158;2024-01-06T13:31:58;43.40;41.96;45.48;;
61095;Laerm;20450;49.074;9.158;2024-01-06T13:34:26;43.49;41.46;45.86;;
61095;Laerm;20450;49.074;9.158;2024-01-06T13:36:53;43.31;41.53;45.39;;
61095;Laerm;20450;49.074;9.158;2024-01-06T13:39:23;43.56;41.89;44.76;;
61095;Laerm;20450;49.074;9.158;2024-01-06T13:41:52;43.83;42.22;46.30;;
61095;Laerm;20450;49.074;9.158;2024-01-06T13:44:23;43.44;41.53;47.67;;
61095;Laerm;20450;49.074;9.158;2024-01-06T13:46:50;43.58;41.61;50.00;;
61095;Laerm;20450;49.074;9.158;2024-01-06T13:49:17;43.65;42.13;50.39;;